Time;durP1;ratioP1;P1;durP2;ratioP2;P2;SDS_P1;SDS_P2;PMS_P1;PMS_P2;Temp;Humidity;BMP_temperature;BMP_pressure;BME280_temperature;BME280_humidity;BME280_pressure;Samples;Min_cycle;Max_cycle;Signal;HPM_P1;HPM_P2
2023/09/14 00:01:13;;;;;;;3.22;1.15;;;15.60;99.90;;;;;;5071804;28;20029;-42
2023/09/14 00:03:38;;;;;;;4.07;1.20;;;15.60;99.90;;;;;;5069319;28;20424;-40
2023/09/14 00:06:04;;;;;;;2.13;1.27;;;15.60;99.90;;;;;;5071622;28;20469;-51
2023/09/14 00:08:30;;;;;;;3.50;1.02;;;15.60;99.90;;;;;;5072867;28;20036;-54
2023/09/14 00:10:58;;;;;;;4.65;1.15;;;15.50;99.90;;;;;;5070745;28;20032;-53
2023/09/14 00:13:24;;;;;;;;;;;15.40;99.90;;;;;;5068358;28;20025;-53
2023/09/14 00:15:50;;;;;;;3.15;0.95;;;15.40;99.90;;;;;;5070361;28;19920;-53
2023/09/14 00:18:16;;;;;;;5.03;1.20;;;15.40;99.90;;;;;;5071853;28;20099;-53
2023/09/14 00:20:42;;;;;;;4.53;1.20;;;15.40;99.90;;;;;;5066590;28;20051;-48
2023/09/14 00:23:07;;;;;;;2.17;1.10;;;15.40;99.90;;;;;;5069866;28;20451;-52
2023/09/14 00:25:33;;;;;;;3.00;1.23;;;15.30;99.90;;;;;;5067137;28;20023;-53
2023/09/14 00:27:59;;;;;;;3.80;1.23;;;15.40;99.90;;;;;;5071839;28;20035;-40
2023/09/14 00:30:25;;;;;;;3.95;1.20;;;15.30;99.90;;;;;;5072241;28;20031;-40
2023/09/14 00:32:52;;;;;;;5.63;1.73;;;15.30;99.90;;;;;;5071818;28;20400;-42
2023/09/14 00:35:19;;;;;;;8.77;3.00;;;15.30;99.90;;;;;;5066439;28;20025;-40
2023/09/14 00:37:45;;;;;;;2.47;1.05;;;15.30;99.90;;;;;;5070921;28;20033;-40
2023/09/14 00:40:13;;;;;;;3.45;1.20;;;15.20;99.90;;;;;;5069203;28;20532;-43
2023/09/14 00:42:47;;;;;;;5.47;1.52;;;15.20;99.90;;;;;;5067792;28;20082;-42
2023/09/14 00:45:19;;;;;;;8.13;1.50;;;15.20;99.90;;;;;;5070998;28;20031;-51
2023/09/14 00:47:47;;;;;;;2.83;1.40;;;15.10;99.90;;;;;;5072483;28;20032;-51
2023/09/14 00:50:15;;;;;;;4.43;1.33;;;15.20;99.90;;;;;;5071094;28;20025;-53
2023/09/14 00:52:42;;;;;;;3.30;1.10;;;15.10;99.90;;;;;;5068652;28;20497;-52
2023/09/14 00:55:09;;;;;;;3.80;1.27;;;15.10;99.90;;;;;;5070153;28;20108;-41
2023/09/14 00:57:36;;;;;;;6.55;2.10;;;15.20;99.90;;;;;;5061468;28;20079;-44
2023/09/14 01:00:10;;;;;;;7.03;1.15;;;15.20;99.90;;;;;;5068910;28;20021;-42
2023/09/14 01:02:36;;;;;;;7.28;1.30;;;15.20;99.90;;;;;;5070512;28;20052;-39
2023/09/14 01:05:03;;;;;;;4.05;1.42;;;15.10;99.90;;;;;;5071220;28;20472;-41
2023/09/14 01:07:29;;;;;;;3.60;1.50;;;15.10;99.90;;;;;;5072108;28;20411;-40
2023/09/14 01:09:55;;;;;;;2.78;1.00;;;15.10;99.90;;;;;;5071738;28;20032;-40
2023/09/14 01:12:21;;;;;;;1.38;1.08;;;15.20;99.90;;;;;;5072552;28;20120;-42
2023/09/14 01:15:10;;;;;;;5.55;1.38;;;15.20;99.90;;;;;;5075187;28;20108;-43
2023/09/14 01:17:54;;;;;;;5.43;1.20;;;15.20;99.90;;;;;;5075779;28;20465;-42
2023/09/14 01:20:39;;;;;;;1.35;1.08;;;15.30;99.90;;;;;;5075254;28;20032;-46
2023/09/14 01:23:36;;;;;;;2.38;1.30;;;15.20;99.90;;;;;;5075345;28;20032;-41
2023/09/14 01:26:02;;;;;;;3.15;1.00;;;15.20;99.90;;;;;;5071183;28;20049;-41
2023/09/14 01:28:28;;;;;;;8.23;1.38;;;15.20;99.90;;;;;;5071909;28;20028;-40
2023/09/14 01:30:54;;;;;;;2.60;1.23;;;15.20;99.90;;;;;;5075257;28;20052;-40
2023/09/14 01:33:24;;;;;;;6.40;1.45;;;15.20;99.90;;;;;;5072657;28;20524;-40
2023/09/14 01:36:08;;;;;;;4.47;1.30;;;15.20;99.90;;;;;;5074028;28;20543;-43
2023/09/14 01:38:35;;;;;;;2.45;1.27;;;15.10;99.90;;;;;;5075110;28;20045;-39
2023/09/14 01:41:02;;;;;;;4.68;1.45;;;15.10;99.90;;;;;;5074040;28;20056;-39
2023/09/14 01:43:29;;;;;;;2.03;1.08;;;15.10;99.90;;;;;;5071926;28;20062;-40
2023/09/14 01:45:54;;;;;;;3.35;1.08;;;15.10;99.90;;;;;;5074928;28;20389;-40
2023/09/14 01:48:22;;;;;;;5.63;1.50;;;15.10;99.90;;;;;;5074963;28;20032;-41
2023/09/14 01:50:48;;;;;;;5.07;1.60;;;15.00;99.90;;;;;;5074973;28;20431;-39
2023/09/14 01:53:13;;;;;;;4.28;0.90;;;15.00;99.90;;;;;;5070035;28;20088;-43
2023/09/14 01:55:39;;;;;;;2.90;1.25;;;14.90;99.90;;;;;;5069527;28;20047;-44
2023/09/14 01:58:05;;;;;;;6.43;1.30;;;15.00;99.90;;;;;;5070420;28;20031;-43
2023/09/14 02:00:30;;;;;;;4.95;1.85;;;14.90;99.90;;;;;;5071757;28;20766;-44
2023/09/14 02:02:56;;;;;;;4.82;1.00;;;14.90;99.90;;;;;;5071108;28;20027;-40
2023/09/14 02:05:22;;;;;;;5.20;1.30;;;14.90;99.90;;;;;;5062122;28;20029;-43
2023/09/14 02:07:47;;;;;;;8.75;1.38;;;14.80;99.90;;;;;;5063123;28;20028;-43
2023/09/14 02:10:17;;;;;;;8.45;1.38;;;14.80;99.90;;;;;;5073480;28;20035;-45
2023/09/14 02:12:42;;;;;;;5.15;1.60;;;14.70;99.90;;;;;;5071513;28;20036;-42
2023/09/14 02:15:11;;;;;;;3.22;1.45;;;14.70;99.90;;;;;;5074522;28;20017;-44
2023/09/14 02:17:37;;;;;;;2.47;1.65;;;14.60;99.90;;;;;;5068190;28;20074;-45
2023/09/14 02:20:07;;;;;;;4.75;1.50;;;14.60;99.90;;;;;;5072589;28;20017;-43
2023/09/14 02:22:33;;;;;;;3.30;1.02;;;14.60;99.90;;;;;;5071985;28;20047;-40
2023/09/14 02:24:59;;;;;;;2.78;1.35;;;14.50;99.90;;;;;;5074122;28;20028;-52
2023/09/14 02:27:24;;;;;;;11.38;1.65;;;14.50;99.90;;;;;;5070922;28;20496;-52
2023/09/14 02:29:54;;;;;;;3.60;1.27;;;14.50;99.90;;;;;;5072300;28;20119;-49
2023/09/14 02:32:20;;;;;;;5.35;1.65;;;14.40;99.90;;;;;;5073551;28;20028;-52
2023/09/14 02:34:46;;;;;;;8.40;1.65;;;14.40;99.90;;;;;;5072920;28;20533;-54
2023/09/14 02:37:11;;;;;;;8.95;1.45;;;14.40;99.90;;;;;;5072197;28;20024;-52
2023/09/14 02:39:37;;;;;;;7.65;1.27;;;14.30;99.90;;;;;;5073717;28;20037;-53
2023/09/14 02:42:03;;;;;;;3.80;1.60;;;14.30;99.90;;;;;;5071714;28;20032;-53
2023/09/14 02:44:28;;;;;;;3.78;1.30;;;14.20;99.90;;;;;;5073891;28;20025;-52
2023/09/14 02:46:54;;;;;;;4.60;1.30;;;14.20;99.90;;;;;;5072883;28;20477;-52
2023/09/14 02:49:20;;;;;;;6.03;1.35;;;14.20;99.90;;;;;;5072744;28;20490;-53
2023/09/14 02:51:45;;;;;;;2.63;1.58;;;14.20;99.90;;;;;;5073549;28;20435;-51
2023/09/14 02:54:11;;;;;;;3.55;1.52;;;14.10;99.90;;;;;;5072455;28;20032;-50
2023/09/14 02:56:36;;;;;;;2.72;1.10;;;14.10;99.90;;;;;;5072480;28;20024;-51
2023/09/14 02:59:02;;;;;;;5.35;1.60;;;14.10;99.90;;;;;;5071640;28;20546;-52
2023/09/14 03:01:28;;;;;;;5.07;1.50;;;14.00;99.90;;;;;;5071949;28;20457;-52
2023/09/14 03:03:53;;;;;;;4.97;1.60;;;14.00;99.90;;;;;;5070120;28;20103;-52
2023/09/14 03:06:19;;;;;;;5.13;1.40;;;14.00;99.90;;;;;;5073430;28;20384;-52
2023/09/14 03:08:45;;;;;;;1.92;1.35;;;13.90;99.90;;;;;;5073601;28;20032;-53
2023/09/14 03:11:10;;;;;;;4.28;1.10;;;13.90;99.90;;;;;;5073151;28;20029;-53
2023/09/14 03:13:36;;;;;;;6.85;1.48;;;13.90;99.90;;;;;;5070140;28;20029;-53
2023/09/14 03:16:02;;;;;;;2.88;1.73;;;13.90;99.90;;;;;;5073190;28;20409;-52
2023/09/14 03:18:28;;;;;;;7.25;2.10;;;13.80;99.90;;;;;;5071668;28;20078;-50
2023/09/14 03:20:55;;;;;;;1.40;1.30;;;13.80;99.90;;;;;;5073147;28;20025;-52
2023/09/14 03:23:22;;;;;;;2.13;1.10;;;13.70;99.90;;;;;;5072295;28;20032;-53
2023/09/14 03:25:48;;;;;;;7.97;1.97;;;13.70;99.90;;;;;;5071119;28;20017;-53
2023/09/14 03:28:15;;;;;;;6.60;2.05;;;13.70;99.90;;;;;;5069893;28;20081;-50
2023/09/14 03:30:40;;;;;;;6.75;2.50;;;13.70;99.90;;;;;;5072945;28;20028;-50
2023/09/14 03:33:07;;;;;;;4.30;1.50;;;13.60;99.90;;;;;;5071232;28;20500;-52
2023/09/14 03:35:33;;;;;;;3.72;1.90;;;13.60;99.90;;;;;;5072751;28;20017;-51
2023/09/14 03:37:59;;;;;;;2.47;1.50;;;13.60;99.90;;;;;;5071882;28;20027;-53
2023/09/14 03:40:25;;;;;;;6.93;1.77;;;13.60;99.90;;;;;;5072676;28;20040;-52
2023/09/14 03:42:51;;;;;;;3.30;1.52;;;13.50;99.90;;;;;;5069907;28;20029;-53
2023/09/14 03:45:16;;;;;;;2.95;1.65;;;13.50;99.90;;;;;;5072790;28;20465;-51
2023/09/14 03:47:42;;;;;;;4.25;1.33;;;13.50;99.90;;;;;;5071827;28;20047;-48
2023/09/14 03:50:09;;;;;;;3.55;1.50;;;13.50;99.90;;;;;;5071490;28;20028;-53
2023/09/14 03:52:36;;;;;;;8.68;2.20;;;13.50;99.90;;;;;;5072616;28;20032;-52
2023/09/14 03:55:05;;;;;;;5.63;1.88;;;13.50;99.90;;;;;;5072898;28;20035;-50
2023/09/14 03:57:30;;;;;;;7.90;2.63;;;13.50;99.90;;;;;;5069642;28;20657;-52
2023/09/14 03:59:57;;;;;;;7.45;2.40;;;13.50;99.90;;;;;;5072692;28;20024;-53
2023/09/14 04:02:24;;;;;;;3.50;1.77;;;13.50;99.90;;;;;;5070185;28;20023;-53
2023/09/14 04:04:50;;;;;;;4.60;1.60;;;13.40;99.90;;;;;;5070964;28;20036;-52
2023/09/14 04:07:16;;;;;;;5.25;1.48;;;13.40;99.90;;;;;;5069167;28;20354;-54
2023/09/14 04:09:42;;;;;;;6.75;1.77;;;13.40;99.90;;;;;;5060235;28;20020;-51
2023/09/14 04:12:08;;;;;;;4.70;2.10;;;13.40;99.90;;;;;;5069528;28;20032;-53
2023/09/14 04:14:34;;;;;;;3.95;1.75;;;13.40;99.90;;;;;;5064443;28;20025;-53
2023/09/14 04:17:00;;;;;;;4.03;1.75;;;13.40;99.90;;;;;;5069953;28;20077;-51
2023/09/14 04:19:27;;;;;;;2.50;1.50;;;13.40;99.90;;;;;;5069591;28;20021;-52
2023/09/14 04:21:53;;;;;;;7.00;1.90;;;13.40;99.90;;;;;;5071133;28;20495;-50
2023/09/14 04:24:19;;;;;;;5.30;2.17;;;13.40;99.90;;;;;;5071657;28;20052;-53
2023/09/14 04:26:45;;;;;;;2.80;1.33;;;13.40;99.90;;;;;;5068334;28;20025;-50
2023/09/14 04:29:11;;;;;;;9.18;2.38;;;13.40;99.90;;;;;;5069106;28;20033;-53
2023/09/14 04:31:37;;;;;;;5.35;1.83;;;13.50;99.90;;;;;;5071025;28;20384;-53
2023/09/14 04:34:04;;;;;;;4.55;2.15;;;13.60;99.90;;;;;;5071219;28;20016;-53
2023/09/14 04:36:31;;;;;;;4.57;1.92;;;13.60;99.90;;;;;;5070063;28;20543;-51
2023/09/14 04:38:57;;;;;;;4.28;1.52;;;13.70;99.90;;;;;;5070275;28;20040;-53
2023/09/14 04:41:22;;;;;;;7.07;1.98;;;13.80;99.90;;;;;;5070989;28;20039;-52
2023/09/14 04:43:48;;;;;;;8.02;1.55;;;13.80;99.90;;;;;;5069495;28;20025;-52
2023/09/14 04:46:14;;;;;;;6.45;1.77;;;13.80;99.90;;;;;;5066302;28;20028;-54
2023/09/14 04:48:41;;;;;;;6.63;1.80;;;13.90;99.90;;;;;;5073964;28;20028;-52
2023/09/14 04:51:07;;;;;;;9.27;2.20;;;13.90;99.90;;;;;;5075022;28;20036;-52
2023/09/14 04:53:33;;;;;;;8.43;1.95;;;13.90;99.90;;;;;;5075917;28;20038;-52
2023/09/14 04:55:59;;;;;;;3.72;1.50;;;13.90;99.90;;;;;;5074332;28;20108;-51
2023/09/14 04:58:25;;;;;;;2.45;1.38;;;13.90;99.90;;;;;;5073923;28;20044;-51
2023/09/14 05:00:50;;;;;;;9.73;2.05;;;14.00;99.90;;;;;;5075909;28;20020;-50
2023/09/14 05:03:17;;;;;;;5.55;1.35;;;13.90;99.90;;;;;;5073461;28;20028;-52
2023/09/14 05:05:50;;;;;;;7.88;1.92;;;13.90;99.90;;;;;;5074704;28;20029;-51
2023/09/14 05:08:15;;;;;;;6.38;1.83;;;14.00;99.90;;;;;;5072541;28;20016;-52
2023/09/14 05:10:41;;;;;;;9.90;2.35;;;14.00;99.90;;;;;;5073968;28;20111;-50
2023/09/14 05:13:06;;;;;;;4.78;2.03;;;14.00;99.90;;;;;;5072777;28;20481;-50
2023/09/14 05:15:32;;;;;;;7.70;1.83;;;14.00;99.90;;;;;;5075739;28;20538;-51
2023/09/14 05:17:58;;;;;;;4.90;2.13;;;14.00;99.90;;;;;;5075429;28;20020;-51
2023/09/14 05:20:23;;;;;;;4.82;1.73;;;14.10;99.90;;;;;;5075722;28;20024;-52
2023/09/14 05:22:49;;;;;;;7.63;1.70;;;14.10;99.90;;;;;;5072430;28;20530;-52
2023/09/14 05:25:15;;;;;;;4.72;1.88;;;14.10;99.90;;;;;;5073724;28;20481;-52
2023/09/14 05:27:41;;;;;;;5.63;1.67;;;14.10;99.90;;;;;;5074249;28;20052;-53
2023/09/14 05:30:11;;;;;;;7.68;1.73;;;14.20;99.90;;;;;;5075260;28;20028;-56
2023/09/14 05:32:38;;;;;;;4.43;2.08;;;14.20;99.90;;;;;;5073173;28;20032;-52
2023/09/14 05:35:06;;;;;;;4.55;1.42;;;14.20;99.90;;;;;;5074176;28;20078;-52
2023/09/14 05:37:33;;;;;;;5.63;1.98;;;14.20;99.90;;;;;;5074175;28;20028;-52
2023/09/14 05:39:58;;;;;;;2.95;1.75;;;14.20;99.90;;;;;;5074909;28;20393;-51
2023/09/14 05:42:24;;;;;;;6.10;2.50;;;14.30;99.90;;;;;;5071598;28;20032;-52
2023/09/14 05:44:50;;;;;;;9.20;2.13;;;14.30;99.90;;;;;;5073939;28;20039;-53
2023/09/14 05:47:15;;;;;;;3.72;2.15;;;14.40;99.90;;;;;;5069915;28;20028;-51
2023/09/14 05:49:42;;;;;;;13.25;1.92;;;14.50;99.90;;;;;;5070288;28;20039;-52
2023/09/14 05:52:08;;;;;;;6.03;1.77;;;14.50;99.90;;;;;;5074745;28;20071;-52
2023/09/14 05:54:34;;;;;;;8.40;2.22;;;14.50;99.90;;;;;;5074681;28;20085;-53
2023/09/14 05:56:59;;;;;;;7.93;1.85;;;14.50;99.90;;;;;;5073764;28;20389;-52
2023/09/14 05:59:25;;;;;;;2.65;1.85;;;14.60;99.90;;;;;;5072974;28;20021;-51
2023/09/14 06:01:51;;;;;;;5.05;2.10;;;14.60;99.90;;;;;;5062868;28;20021;-53
2023/09/14 06:04:17;;;;;;;5.97;1.63;;;14.60;99.90;;;;;;5072834;28;20122;-53
2023/09/14 06:06:43;;;;;;;9.30;2.20;;;14.60;99.90;;;;;;5070619;28;20016;-52
2023/09/14 06:09:08;;;;;;;4.43;1.77;;;14.60;99.90;;;;;;5073675;28;20066;-52
2023/09/14 06:11:34;;;;;;;6.30;2.58;;;14.60;99.90;;;;;;5074491;28;20024;-53
2023/09/14 06:14:00;;;;;;;7.28;2.13;;;14.60;99.90;;;;;;5072374;28;20297;-50
2023/09/14 06:16:26;;;;;;;4.93;1.83;;;14.70;99.90;;;;;;5073190;28;20033;-52
2023/09/14 06:18:52;;;;;;;10.40;2.15;;;14.80;99.90;;;;;;5073108;28;20457;-49
2023/09/14 06:21:18;;;;;;;5.22;2.15;;;14.80;99.90;;;;;;5074320;28;20481;-52
2023/09/14 06:23:44;;;;;;;8.50;2.28;;;14.80;99.90;;;;;;5066358;28;20033;-52
2023/09/14 06:26:10;;;;;;;9.13;2.30;;;14.90;99.90;;;;;;5069686;28;20116;-50
2023/09/14 06:28:36;;;;;;;8.13;2.40;;;14.90;99.90;;;;;;5072714;28;20409;-52
2023/09/14 06:31:01;;;;;;;4.28;1.85;;;15.00;99.90;;;;;;5073833;28;20025;-52
2023/09/14 06:33:27;;;;;;;10.38;2.88;;;15.10;99.90;;;;;;5073874;28;20043;-52
2023/09/14 06:35:52;;;;;;;5.43;2.60;;;15.20;99.90;;;;;;5073547;28;20024;-50
2023/09/14 06:38:18;;;;;;;10.50;2.38;;;15.20;99.90;;;;;;5073713;28;20385;-52
2023/09/14 06:40:44;;;;;;;4.47;2.33;;;15.30;99.90;;;;;;5070066;28;20024;-53
2023/09/14 06:43:10;;;;;;;6.18;2.20;;;15.40;99.90;;;;;;5073513;28;20491;-53
2023/09/14 06:45:35;;;;;;;8.20;2.63;;;15.40;99.90;;;;;;5073400;28;20060;-53
2023/09/14 06:48:01;;;;;;;6.05;2.20;;;15.50;99.90;;;;;;5072927;28;20028;-52
2023/09/14 06:50:27;;;;;;;8.75;2.20;;;15.50;99.90;;;;;;5073417;28;20048;-53
2023/09/14 06:52:53;;;;;;;8.23;2.20;;;15.50;99.90;;;;;;5073179;28;20126;-52
2023/09/14 06:55:19;;;;;;;3.70;2.22;;;15.50;99.90;;;;;;5073472;28;20039;-50
2023/09/14 06:57:45;;;;;;;10.50;3.05;;;15.50;99.90;;;;;;5071135;28;20100;-53
2023/09/14 07:00:15;;;;;;;3.63;1.73;;;15.60;99.90;;;;;;5067612;28;20437;-53
2023/09/14 07:02:41;;;;;;;7.93;3.05;;;15.60;99.90;;;;;;5073626;28;20024;-53
2023/09/14 07:05:10;;;;;;;5.57;2.20;;;15.70;99.90;;;;;;5071915;28;20526;-52
2023/09/14 07:07:39;;;;;;;7.10;2.35;;;15.80;99.90;;;;;;5069093;28;20389;-53
2023/09/14 07:10:06;;;;;;;5.65;2.33;;;15.90;99.90;;;;;;5067791;28;20033;-52
2023/09/14 07:12:32;;;;;;;8.20;2.88;;;16.00;99.90;;;;;;5067461;28;20040;-54
2023/09/14 07:14:57;;;;;;;14.25;2.50;;;16.10;99.90;;;;;;5059257;28;20060;-53
2023/09/14 07:17:24;;;;;;;8.57;2.67;;;16.30;99.90;;;;;;5060611;28;20053;-54
2023/09/14 07:19:50;;;;;;;5.82;2.05;;;16.40;99.90;;;;;;5063832;28;20046;-45
2023/09/14 07:22:17;;;;;;;5.88;2.30;;;16.40;99.90;;;;;;5065521;28;20115;-52
2023/09/14 07:24:43;;;;;;;5.82;2.38;;;16.50;99.90;;;;;;5067658;28;20385;-52
2023/09/14 07:27:08;;;;;;;6.95;2.30;;;16.50;99.90;;;;;;5062288;28;20028;-49
2023/09/14 07:29:35;;;;;;;5.00;2.22;;;16.50;99.90;;;;;;5072883;28;20116;-52
2023/09/14 07:32:01;;;;;;;8.82;2.17;;;16.60;99.90;;;;;;5070183;28;20503;-53
2023/09/14 07:34:27;;;;;;;4.68;2.40;;;16.60;99.90;;;;;;5070500;28;20031;-53
2023/09/14 07:36:54;;;;;;;6.03;2.00;;;16.60;99.90;;;;;;5070146;28;20090;-50
2023/09/14 07:39:19;;;;;;;4.63;2.60;;;16.70;99.90;;;;;;5072528;28;20647;-51
2023/09/14 07:41:45;;;;;;;9.32;2.08;;;16.80;99.90;;;;;;5070508;28;20031;-51
2023/09/14 07:44:12;;;;;;;11.73;3.88;;;16.80;99.90;;;;;;5072778;28;20028;-49
2023/09/14 07:46:39;;;;;;;11.27;3.03;;;16.80;99.90;;;;;;5072873;28;20054;-52
2023/09/14 07:49:05;;;;;;;5.47;1.90;;;17.00;99.90;;;;;;5068372;28;20024;-53
2023/09/14 07:51:31;;;;;;;9.25;2.47;;;17.00;99.90;;;;;;5069531;28;20033;-50
2023/09/14 07:53:59;;;;;;;7.30;2.00;;;17.10;99.90;;;;;;5072562;28;20029;-51
2023/09/14 07:56:25;;;;;;;;;;;17.20;99.90;;;;;;5073056;28;20435;-53
2023/09/14 07:58:52;;;;;;;8.63;2.35;;;17.20;99.90;;;;;;5072598;28;19913;-54
2023/09/14 08:01:18;;;;;;;9.95;2.85;;;17.30;99.90;;;;;;5072964;28;20053;-41
2023/09/14 08:03:44;;;;;;;5.50;2.90;;;17.40;99.90;;;;;;5072667;28;20505;-42
2023/09/14 08:06:09;;;;;;;6.55;2.58;;;17.50;99.90;;;;;;5071342;28;20024;-41
2023/09/14 08:08:35;;;;;;;9.77;2.97;;;17.60;99.90;;;;;;5070538;28;20025;-39
2023/09/14 08:11:01;;;;;;;12.30;3.08;;;17.70;99.90;;;;;;5072414;28;20036;-40
2023/09/14 08:13:27;;;;;;;6.47;2.47;;;17.90;99.90;;;;;;5071613;28;20032;-41
2023/09/14 08:15:52;;;;;;;7.90;2.75;;;18.00;99.90;;;;;;5068492;28;20029;-46
2023/09/14 08:18:19;;;;;;;6.18;2.60;;;18.10;99.90;;;;;;5067376;28;20086;-43
2023/09/14 08:20:46;;;;;;;5.33;2.27;;;18.20;99.90;;;;;;5087663;28;20101;-39
2023/09/14 08:23:15;;;;;;;7.25;2.60;;;18.30;99.90;;;;;;5076425;28;20035;-40
2023/09/14 08:25:44;;;;;;;6.57;2.40;;;18.40;99.90;;;;;;5075858;28;20062;-40
2023/09/14 08:28:12;;;;;;;6.97;2.75;;;18.40;99.90;;;;;;5076337;28;20034;-43
2023/09/14 08:30:40;;;;;;;5.20;2.80;;;18.50;99.90;;;;;;5075402;28;20060;-42
2023/09/14 08:33:06;;;;;;;5.93;2.50;;;18.60;99.90;;;;;;5073738;28;20469;-44
2023/09/14 08:35:33;;;;;;;13.02;2.58;;;18.70;99.90;;;;;;5071431;28;20039;-41
2023/09/14 08:37:59;;;;;;;9.23;3.10;;;18.70;99.90;;;;;;5068365;28;20021;-44
2023/09/14 08:40:25;;;;;;;6.85;2.58;;;18.80;99.90;;;;;;5071237;28;20036;-41
2023/09/14 08:42:54;;;;;;;6.03;2.55;;;18.90;99.90;;;;;;5074039;28;20033;-40
2023/09/14 08:45:27;;;;;;;9.95;3.88;;;18.90;99.90;;;;;;5072571;28;20064;-41
2023/09/14 08:47:54;;;;;;;8.00;2.75;;;19.10;99.90;;;;;;5071663;28;20031;-41
2023/09/14 08:50:25;;;;;;;6.00;2.63;;;19.20;99.90;;;;;;5073001;28;20024;-42
2023/09/14 08:52:51;;;;;;;9.65;3.22;;;19.30;99.90;;;;;;5069538;28;20044;-43
2023/09/14 08:55:20;;;;;;;23.75;5.35;;;19.30;99.90;;;;;;5075108;28;20032;-43
2023/09/14 08:57:47;;;;;;;7.00;2.90;;;19.50;99.90;;;;;;5070701;28;20020;-44
2023/09/14 09:00:17;;;;;;;7.22;3.15;;;19.50;99.90;;;;;;5071407;28;20476;-42
2023/09/14 09:02:52;;;;;;;4.20;2.80;;;19.60;99.90;;;;;;5094338;28;20028;-44
2023/09/14 09:05:19;;;;;;;6.55;3.20;;;19.60;99.90;;;;;;5075868;28;20024;-40
2023/09/14 09:07:46;;;;;;;6.97;2.92;;;19.60;99.90;;;;;;5065535;28;20036;-42
2023/09/14 09:10:23;;;;;;;5.32;2.63;;;19.60;99.90;;;;;;5066780;28;20154;-46
2023/09/14 09:12:51;;;;;;;4.68;2.88;;;19.70;99.90;;;;;;5070064;28;20654;-42
2023/09/14 09:15:17;;;;;;;10.48;2.75;;;19.80;99.90;;;;;;5072456;28;20033;-44
2023/09/14 09:17:44;;;;;;;11.25;2.83;;;19.80;99.90;;;;;;5075751;28;20047;-44
2023/09/14 09:20:22;;;;;;;4.33;2.53;;;20.00;99.90;;;;;;5074136;28;20028;-46
2023/09/14 09:22:50;;;;;;;6.18;3.03;;;20.20;99.90;;;;;;5073339;28;20020;-41
2023/09/14 09:25:17;;;;;;;7.13;2.78;;;20.20;99.90;;;;;;5071112;28;20028;-39
2023/09/14 09:27:43;;;;;;;10.30;3.33;;;20.20;99.90;;;;;;5071616;28;20063;-40
2023/09/14 09:30:09;;;;;;;6.70;3.00;;;20.30;99.90;;;;;;5073418;28;20496;-40
2023/09/14 09:32:39;;;;;;;7.53;3.08;;;20.20;99.90;;;;;;5072147;28;20085;-41
2023/09/14 09:35:20;;;;;;;5.10;2.70;;;20.20;99.90;;;;;;5073017;28;20493;-40
2023/09/14 09:37:46;;;;;;;4.80;2.75;;;20.40;99.90;;;;;;5067858;28;20437;-42
2023/09/14 09:40:16;;;;;;;8.45;2.85;;;20.40;99.90;;;;;;5054865;28;20033;-45
2023/09/14 09:42:43;;;;;;;9.75;3.45;;;20.40;99.90;;;;;;5070147;28;20044;-41
2023/09/14 09:45:10;;;;;;;5.30;3.22;;;20.40;99.90;;;;;;5075288;28;20425;-40
2023/09/14 09:47:36;;;;;;;10.30;3.23;;;20.40;99.90;;;;;;5075066;28;20530;-41
2023/09/14 09:50:06;;;;;;;8.25;2.97;;;20.60;99.90;;;;;;5074924;28;20389;-41
2023/09/14 09:52:33;;;;;;;10.55;3.35;;;20.70;99.90;;;;;;5074845;28;20024;-44
2023/09/14 09:54:59;;;;;;;5.47;3.30;;;20.70;99.90;;;;;;5074689;28;20031;-41
2023/09/14 09:57:31;;;;;;;9.25;2.75;;;20.60;99.90;;;;;;5072025;28;20393;-39
2023/09/14 09:59:57;;;;;;;5.93;2.88;;;20.40;99.90;;;;;;5069707;28;20027;-42
2023/09/14 10:02:33;;;;;;;3.00;2.30;;;20.30;99.90;;;;;;5073666;28;20066;-50
2023/09/14 10:04:59;;;;;;;5.65;2.35;;;20.30;99.90;;;;;;5072610;28;20036;-50
2023/09/14 10:07:25;;;;;;;6.93;3.22;;;20.50;99.90;;;;;;5072352;28;20412;-51
2023/09/14 10:09:53;;;;;;;6.90;3.22;;;20.50;99.90;;;;;;5061138;28;20119;-52
2023/09/14 10:12:26;;;;;;;7.20;2.45;;;20.70;99.90;;;;;;5072453;28;20092;-52
2023/09/14 10:14:55;;;;;;;12.05;3.35;;;20.90;99.90;;;;;;5073790;28;20108;-48
2023/09/14 10:17:24;;;;;;;9.77;2.30;;;20.90;99.90;;;;;;5072601;28;20114;-52
2023/09/14 10:19:51;;;;;;;3.42;2.03;;;20.90;99.90;;;;;;5073415;28;20028;-52
2023/09/14 10:22:19;;;;;;;3.67;2.10;;;20.90;99.90;;;;;;5069367;28;20112;-52
2023/09/14 10:24:45;;;;;;;5.75;2.25;;;20.80;99.90;;;;;;5074219;28;20259;-52
2023/09/14 10:27:13;;;;;;;6.07;2.10;;;20.70;99.90;;;;;;5073838;28;20029;-52
2023/09/14 10:29:42;;;;;;;2.67;2.22;;;20.60;99.90;;;;;;5073697;28;20031;-50
2023/09/14 10:32:10;;;;;;;4.15;2.05;;;20.50;99.90;;;;;;5073635;28;20111;-51
2023/09/14 10:34:37;;;;;;;7.80;2.42;;;20.30;99.90;;;;;;5073956;28;20029;-52
2023/09/14 10:37:04;;;;;;;2.92;1.95;;;20.20;99.90;;;;;;5074001;28;20020;-61
2023/09/14 10:39:30;;;;;;;3.35;2.47;;;20.20;99.90;;;;;;5071898;28;20029;-57
2023/09/14 10:41:56;;;;;;;5.82;2.05;;;20.20;99.90;;;;;;5073276;28;20033;-52
2023/09/14 10:44:22;;;;;;;7.20;2.30;;;20.20;99.90;;;;;;5074110;28;20491;-49
2023/09/14 10:46:52;;;;;;;2.10;1.63;;;20.30;99.90;;;;;;5073867;28;20048;-48
2023/09/14 10:49:23;;;;;;;7.28;1.90;;;20.10;99.90;;;;;;5073715;28;20110;-50
2023/09/14 10:51:49;;;;;;;3.47;1.73;;;20.10;99.90;;;;;;5073666;28;20036;-50
2023/09/14 10:54:14;;;;;;;5.50;2.20;;;19.90;99.90;;;;;;5073604;28;20532;-49
2023/09/14 10:56:40;;;;;;;5.53;2.15;;;19.90;99.90;;;;;;5071823;28;20041;-51
2023/09/14 10:59:09;;;;;;;3.28;2.33;;;19.80;99.90;;;;;;5073629;28;20461;-51
2023/09/14 11:01:46;;;;;;;4.53;2.00;;;19.80;99.90;;;;;;5073719;28;20032;-51
2023/09/14 11:04:13;;;;;;;4.30;1.88;;;19.80;99.90;;;;;;5073508;28;20024;-51
2023/09/14 11:07:00;;;;;;;7.90;2.37;;;20.00;99.90;;;;;;5073746;28;20021;-53
2023/09/14 11:09:25;;;;;;;7.03;2.70;;;20.40;99.90;;;;;;5073726;28;20078;-51
2023/09/14 11:11:52;;;;;;;4.00;2.00;;;20.80;99.90;;;;;;5073545;28;20020;-49
2023/09/14 11:14:20;;;;;;;10.53;2.30;;;21.20;99.90;;;;;;5066300;28;20024;-52
2023/09/14 11:17:00;;;;;;;6.90;2.40;;;21.40;99.90;;;;;;5073424;28;20294;-50
2023/09/14 11:19:32;;;;;;;6.90;2.30;;;21.50;99.90;;;;;;5073562;28;20048;-50
2023/09/14 11:22:11;;;;;;;2.92;2.00;;;21.50;99.90;;;;;;5071982;28;20112;-51
2023/09/14 11:24:37;;;;;;;5.30;1.70;;;21.70;99.90;;;;;;5073118;28;20031;-50
2023/09/14 11:27:03;;;;;;;3.00;2.10;;;22.00;99.90;;;;;;5073102;28;20028;-51
2023/09/14 11:29:31;;;;;;;6.15;2.10;;;22.20;99.90;;;;;;5072075;28;20098;-51
2023/09/14 11:32:01;;;;;;;4.55;2.42;;;22.10;99.90;;;;;;5072632;28;20024;-53
2023/09/14 11:34:29;;;;;;;3.50;1.70;;;22.00;99.90;;;;;;5072901;28;20029;-52
2023/09/14 11:36:58;;;;;;;1.83;1.52;;;21.80;99.90;;;;;;5072910;28;20020;-50
2023/09/14 11:39:25;;;;;;;3.97;1.77;;;21.50;99.90;;;;;;5072720;28;20117;-49
2023/09/14 11:41:52;;;;;;;3.40;2.00;;;21.70;99.90;;;;;;5069345;28;20021;-49
2023/09/14 11:44:18;;;;;;;4.32;2.25;;;21.90;99.90;;;;;;5061951;28;20028;-48
2023/09/14 11:46:48;;;;;;;3.97;2.00;;;22.20;99.90;;;;;;5071921;28;20044;-51
2023/09/14 11:49:16;;;;;;;5.57;1.88;;;22.50;99.90;;;;;;5069252;28;20502;-50
2023/09/14 11:51:41;;;;;;;4.95;1.83;;;22.80;99.90;;;;;;5072782;28;20052;-52
2023/09/14 11:54:08;;;;;;;6.55;2.28;;;22.90;99.90;;;;;;5070790;28;20071;-51
2023/09/14 11:56:35;;;;;;;4.72;1.90;;;23.00;99.90;;;;;;5072656;28;20060;-53
2023/09/14 11:59:02;;;;;;;6.35;2.05;;;22.80;99.90;;;;;;5072906;28;20362;-49
2023/09/14 12:01:30;;;;;;;5.05;2.42;;;22.40;99.90;;;;;;5072808;28;20025;-51
2023/09/14 12:03:57;;;;;;;3.20;2.13;;;21.90;99.90;;;;;;5071179;28;20063;-49
2023/09/14 12:06:28;;;;;;;8.68;1.83;;;21.70;99.90;;;;;;5072613;28;20056;-50
2023/09/14 12:08:54;;;;;;;8.10;2.38;;;21.50;99.90;;;;;;5072686;28;20028;-49
2023/09/14 12:11:21;;;;;;;3.03;1.95;;;21.40;99.90;;;;;;5073421;28;20024;-53
2023/09/14 12:13:52;;;;;;;8.48;2.10;;;21.20;99.90;;;;;;5071490;28;20476;-52
2023/09/14 12:16:27;;;;;;;6.63;1.80;;;21.20;99.90;;;;;;5071024;28;20052;-50
2023/09/14 12:18:53;;;;;;;3.90;1.88;;;21.10;99.90;;;;;;5072749;28;20078;-52
2023/09/14 12:21:20;;;;;;;2.20;1.60;;;21.00;99.90;;;;;;5071767;28;20427;-50
2023/09/14 12:23:49;;;;;;;2.42;1.63;;;20.90;99.90;;;;;;5072280;28;20021;-51
2023/09/14 12:26:18;;;;;;;4.85;2.38;;;20.90;99.90;;;;;;5072359;28;20075;-50
2023/09/14 12:28:52;;;;;;;2.63;1.50;;;20.80;99.90;;;;;;5072400;28;20025;-47
2023/09/14 12:31:20;;;;;;;3.20;1.67;;;20.80;99.90;;;;;;5070032;28;20402;-50
2023/09/14 12:33:46;;;;;;;2.47;1.88;;;20.80;99.90;;;;;;5072405;28;20029;-51
2023/09/14 12:36:12;;;;;;;3.92;1.90;;;20.90;99.90;;;;;;5071267;28;20366;-52
2023/09/14 12:38:38;;;;;;;3.15;2.08;;;20.90;99.90;;;;;;5071616;28;20086;-49
2023/09/14 12:41:08;;;;;;;3.75;1.80;;;20.90;99.90;;;;;;5072144;28;20056;-51
2023/09/14 12:43:34;;;;;;;10.00;2.35;;;20.90;99.90;;;;;;5072269;28;20017;-52
2023/09/14 12:46:00;;;;;;;4.55;1.80;;;20.90;99.90;;;;;;5071125;28;20024;-39